<?xml version="1.0" encoding="UTF-8" standalone="no" ?>
<gpx xmlns="http://www.topografix.com/GPX/1/1" xmlns:xsi="http://www.w3.org/2001/XMLSchema-instance" xsi:schemaLocation="http://www.topografix.com/GPX/1/1 http://www.topografix.com/GPX/1/1/gpx.xsd" version="1.1" creator="VisuGPX - https://www.visugpx.com">
  <metadata>
    <name>Fontaine de l\'Ours - Cabane de Cornudère</name>
    <desc><![CDATA[Belle rando sans difficulté pour accéder à une cabane ayant une vue imprenable ! 
2 km pour 353 m de D ]]></desc>
  </metadata>
  <trk>
    <name><![CDATA[Fontaine de l'Ours-Cabane de Cornudère]]></name>
    <trkseg>
      <trkpt lat="42.96449" lon="0.87883">
        <ele>1191.21</ele>
        <time>2015-12-18T12:51:30Z</time>
      </trkpt>
      <trkpt lat="42.9642" lon="0.87821">
        <ele>1200.34</ele>
        <time>2015-12-18T12:53:44Z</time>
      </trkpt>
      <trkpt lat="42.96404" lon="0.87828">
        <ele>1202.75</ele>
        <time>2015-12-18T12:54:08Z</time>
      </trkpt>
      <trkpt lat="42.96387" lon="0.87813">
        <ele>1208.51</ele>
        <time>2015-12-18T12:54:46Z</time>
      </trkpt>
      <trkpt lat="42.96371" lon="0.87809">
        <ele>1210.44</ele>
        <time>2015-12-18T12:55:09Z</time>
      </trkpt>
      <trkpt lat="42.96358" lon="0.87803">
        <ele>1212.84</ele>
        <time>2015-12-18T12:55:29Z</time>
      </trkpt>
      <trkpt lat="42.96347" lon="0.87785">
        <ele>1217.65</ele>
        <time>2015-12-18T12:56:06Z</time>
      </trkpt>
      <trkpt lat="42.96335" lon="0.87777">
        <ele>1220.05</ele>
        <time>2015-12-18T12:56:35Z</time>
      </trkpt>
      <trkpt lat="42.96329" lon="0.87758">
        <ele>1223.42</ele>
        <time>2015-12-18T12:57:08Z</time>
      </trkpt>
      <trkpt lat="42.96339" lon="0.8774">
        <ele>1224.38</ele>
        <time>2015-12-18T12:57:41Z</time>
      </trkpt>
      <trkpt lat="42.9635" lon="0.87714">
        <ele>1229.18</ele>
        <time>2015-12-18T12:58:13Z</time>
      </trkpt>
      <trkpt lat="42.96349" lon="0.87689">
        <ele>1233.51</ele>
        <time>2015-12-18T12:58:52Z</time>
      </trkpt>
      <trkpt lat="42.96351" lon="0.87672">
        <ele>1236.87</ele>
        <time>2015-12-18T12:59:28Z</time>
      </trkpt>
      <trkpt lat="42.9634" lon="0.87651">
        <ele>1243.6</ele>
        <time>2015-12-18T13:00:19Z</time>
      </trkpt>
      <trkpt lat="42.96327" lon="0.87647">
        <ele>1246.01</ele>
        <time>2015-12-18T13:00:45Z</time>
      </trkpt>
      <trkpt lat="42.96308" lon="0.87624">
        <ele>1251.29</ele>
        <time>2015-12-18T13:01:33Z</time>
      </trkpt>
      <trkpt lat="42.96311" lon="0.87603">
        <ele>1255.62</ele>
        <time>2015-12-18T13:02:13Z</time>
      </trkpt>
      <trkpt lat="42.96304" lon="0.87578">
        <ele>1260.43</ele>
        <time>2015-12-18T13:02:52Z</time>
      </trkpt>
      <trkpt lat="42.96286" lon="0.87567">
        <ele>1261.87</ele>
        <time>2015-12-18T13:03:19Z</time>
      </trkpt>
      <trkpt lat="42.96265" lon="0.87549">
        <ele>1262.35</ele>
        <time>2015-12-18T13:03:47Z</time>
      </trkpt>
      <trkpt lat="42.96254" lon="0.87523">
        <ele>1266.19</ele>
        <time>2015-12-18T13:04:23Z</time>
      </trkpt>
      <trkpt lat="42.9624" lon="0.87514">
        <ele>1268.6</ele>
        <time>2015-12-18T13:04:43Z</time>
      </trkpt>
      <trkpt lat="42.96219" lon="0.87518">
        <ele>1271.96</ele>
        <time>2015-12-18T13:05:11Z</time>
      </trkpt>
      <trkpt lat="42.96211" lon="0.87513">
        <ele>1274.85</ele>
        <time>2015-12-18T13:05:33Z</time>
      </trkpt>
      <trkpt lat="42.96199" lon="0.8749">
        <ele>1277.73</ele>
        <time>2015-12-18T13:06:03Z</time>
      </trkpt>
      <trkpt lat="42.962" lon="0.87464">
        <ele>1281.09</ele>
        <time>2015-12-18T13:06:33Z</time>
      </trkpt>
      <trkpt lat="42.96209" lon="0.87434">
        <ele>1282.54</ele>
        <time>2015-12-18T13:07:04Z</time>
      </trkpt>
      <trkpt lat="42.96217" lon="0.87411">
        <ele>1283.5</ele>
        <time>2015-12-18T13:07:27Z</time>
      </trkpt>
      <trkpt lat="42.96219" lon="0.87398">
        <ele>1285.9</ele>
        <time>2015-12-18T13:07:44Z</time>
      </trkpt>
      <trkpt lat="42.96216" lon="0.87372">
        <ele>1288.78</ele>
        <time>2015-12-18T13:08:13Z</time>
      </trkpt>
      <trkpt lat="42.96216" lon="0.87346">
        <ele>1293.11</ele>
        <time>2015-12-18T13:08:47Z</time>
      </trkpt>
      <trkpt lat="42.9621" lon="0.87319">
        <ele>1298.4</ele>
        <time>2015-12-18T13:09:29Z</time>
      </trkpt>
      <trkpt lat="42.96215" lon="0.87304">
        <ele>1299.84</ele>
        <time>2015-12-18T13:09:54Z</time>
      </trkpt>
      <trkpt lat="42.96208" lon="0.87306">
        <ele>1302.72</ele>
        <time>2015-12-18T13:10:16Z</time>
      </trkpt>
      <trkpt lat="42.96197" lon="0.87324">
        <ele>1307.53</ele>
        <time>2015-12-18T13:10:55Z</time>
      </trkpt>
      <trkpt lat="42.96163" lon="0.87343">
        <ele>1310.9</ele>
        <time>2015-12-18T13:11:31Z</time>
      </trkpt>
      <trkpt lat="42.96135" lon="0.87363">
        <ele>1319.07</ele>
        <time>2015-12-18T13:12:39Z</time>
      </trkpt>
      <trkpt lat="42.96112" lon="0.87384">
        <ele>1322.91</ele>
        <time>2015-12-18T13:13:43Z</time>
      </trkpt>
      <trkpt lat="42.96096" lon="0.87422">
        <ele>1327.72</ele>
        <time>2015-12-18T13:14:32Z</time>
      </trkpt>
      <trkpt lat="42.96084" lon="0.87444">
        <ele>1332.52</ele>
        <time>2015-12-18T13:15:13Z</time>
      </trkpt>
      <trkpt lat="42.96089" lon="0.87464">
        <ele>1338.77</ele>
        <time>2015-12-18T13:15:51Z</time>
      </trkpt>
      <trkpt lat="42.96089" lon="0.87503">
        <ele>1346.46</ele>
        <time>2015-12-18T13:16:55Z</time>
      </trkpt>
      <trkpt lat="42.96074" lon="0.87517">
        <ele>1351.75</ele>
        <time>2015-12-18T13:17:38Z</time>
      </trkpt>
      <trkpt lat="42.96067" lon="0.8754">
        <ele>1357.04</ele>
        <time>2015-12-18T13:18:18Z</time>
      </trkpt>
      <trkpt lat="42.96063" lon="0.87564">
        <ele>1360.88</ele>
        <time>2015-12-18T13:18:55Z</time>
      </trkpt>
      <trkpt lat="42.96038" lon="0.87575">
        <ele>1366.65</ele>
        <time>2015-12-18T13:20:42Z</time>
      </trkpt>
      <trkpt lat="42.96039" lon="0.87611">
        <ele>1371.94</ele>
        <time>2015-12-18T13:21:46Z</time>
      </trkpt>
      <trkpt lat="42.96024" lon="0.87639">
        <ele>1377.23</ele>
        <time>2015-12-18T13:22:36Z</time>
      </trkpt>
      <trkpt lat="42.96028" lon="0.87652">
        <ele>1383.47</ele>
        <time>2015-12-18T13:23:28Z</time>
      </trkpt>
      <trkpt lat="42.96019" lon="0.87686">
        <ele>1390.2</ele>
        <time>2015-12-18T13:24:23Z</time>
      </trkpt>
      <trkpt lat="42.95993" lon="0.87655">
        <ele>1399.82</ele>
        <time>2015-12-18T13:25:46Z</time>
      </trkpt>
      <trkpt lat="42.95971" lon="0.87668">
        <ele>1407.99</ele>
        <time>2015-12-18T13:26:50Z</time>
      </trkpt>
      <trkpt lat="42.95977" lon="0.87682">
        <ele>1412.31</ele>
        <time>2015-12-18T13:27:22Z</time>
      </trkpt>
      <trkpt lat="42.95981" lon="0.87705">
        <ele>1414.24</ele>
        <time>2015-12-18T13:28:07Z</time>
      </trkpt>
      <trkpt lat="42.95981" lon="0.87734">
        <ele>1420.49</ele>
        <time>2015-12-18T13:28:55Z</time>
      </trkpt>
      <trkpt lat="42.9598" lon="0.87756">
        <ele>1425.29</ele>
        <time>2015-12-18T13:29:34Z</time>
      </trkpt>
      <trkpt lat="42.95979" lon="0.87784">
        <ele>1432.02</ele>
        <time>2015-12-18T13:30:35Z</time>
      </trkpt>
      <trkpt lat="42.95976" lon="0.87818">
        <ele>1435.87</ele>
        <time>2015-12-18T13:31:25Z</time>
      </trkpt>
      <trkpt lat="42.95973" lon="0.87848">
        <ele>1442.6</ele>
        <time>2015-12-18T13:32:20Z</time>
      </trkpt>
      <trkpt lat="42.95964" lon="0.87882">
        <ele>1443.56</ele>
        <time>2015-12-18T13:33:59Z</time>
      </trkpt>
      <trkpt lat="42.95983" lon="0.87885">
        <ele>1445</ele>
        <time>2015-12-18T13:35:07Z</time>
      </trkpt>
      <trkpt lat="42.95982" lon="0.87899">
        <ele>1447.4</ele>
        <time>2015-12-18T13:35:41Z</time>
      </trkpt>
      <trkpt lat="42.95978" lon="0.87938">
        <ele>1451.25</ele>
        <time>2015-12-18T13:36:20Z</time>
      </trkpt>
      <trkpt lat="42.95987" lon="0.87945">
        <ele>1455.57</ele>
        <time>2015-12-18T13:36:48Z</time>
      </trkpt>
      <trkpt lat="42.96002" lon="0.8796">
        <ele>1459.42</ele>
        <time>2015-12-18T13:37:18Z</time>
      </trkpt>
      <trkpt lat="42.96013" lon="0.87976">
        <ele>1463.26</ele>
        <time>2015-12-18T13:37:52Z</time>
      </trkpt>
      <trkpt lat="42.96017" lon="0.88001">
        <ele>1469.03</ele>
        <time>2015-12-18T13:38:36Z</time>
      </trkpt>
      <trkpt lat="42.96024" lon="0.88023">
        <ele>1471.44</ele>
        <time>2015-12-18T13:39:06Z</time>
      </trkpt>
      <trkpt lat="42.96025" lon="0.88047">
        <ele>1474.8</ele>
        <time>2015-12-18T13:39:38Z</time>
      </trkpt>
      <trkpt lat="42.9603" lon="0.88067">
        <ele>1476.72</ele>
        <time>2015-12-18T13:40:02Z</time>
      </trkpt>
      <trkpt lat="42.96034" lon="0.88089">
        <ele>1479.61</ele>
        <time>2015-12-18T13:40:29Z</time>
      </trkpt>
      <trkpt lat="42.96034" lon="0.88124">
        <ele>1482.01</ele>
        <time>2015-12-18T13:41:16Z</time>
      </trkpt>
      <trkpt lat="42.96036" lon="0.88161">
        <ele>1487.3</ele>
        <time>2015-12-18T13:42:03Z</time>
      </trkpt>
      <trkpt lat="42.96033" lon="0.88202">
        <ele>1489.7</ele>
        <time>2015-12-18T13:42:51Z</time>
      </trkpt>
      <trkpt lat="42.96044" lon="0.88228">
        <ele>1494.03</ele>
        <time>2015-12-18T13:43:35Z</time>
      </trkpt>
      <trkpt lat="42.96035" lon="0.88259">
        <ele>1501.72</ele>
        <time>2015-12-18T13:44:37Z</time>
      </trkpt>
      <trkpt lat="42.96005" lon="0.88291">
        <ele>1507.97</ele>
        <time>2015-12-18T13:46:29Z</time>
      </trkpt>
      <trkpt lat="42.95989" lon="0.88292">
        <ele>1511.81</ele>
        <time>2015-12-18T13:47:26Z</time>
      </trkpt>
      <trkpt lat="42.95974" lon="0.8828">
        <ele>1513.25</ele>
        <time>2015-12-18T13:47:52Z</time>
      </trkpt>
      <trkpt lat="42.95959" lon="0.88224">
        <ele>1518.54</ele>
        <time>2015-12-18T13:48:53Z</time>
      </trkpt>
      <trkpt lat="42.95958" lon="0.88201">
        <ele>1521.9</ele>
        <time>2015-12-18T13:49:29Z</time>
      </trkpt>
      <trkpt lat="42.95954" lon="0.8817">
        <ele>1527.19</ele>
        <time>2015-12-18T13:50:13Z</time>
      </trkpt>
      <trkpt lat="42.95938" lon="0.88152">
        <ele>1532.96</ele>
        <time>2015-12-18T13:50:59Z</time>
      </trkpt>
      <trkpt lat="42.95917" lon="0.88147">
        <ele>1537.77</ele>
        <time>2015-12-18T13:51:42Z</time>
      </trkpt>
      <trkpt lat="42.95901" lon="0.88136">
        <ele>1542.09</ele>
        <time>2015-12-18T13:52:19Z</time>
      </trkpt>
      <trkpt lat="42.95901" lon="0.88119">
        <ele>1544.98</ele>
        <time>2015-12-18T13:52:39Z</time>
      </trkpt>
      <trkpt lat="42.95896" lon="0.88101">
        <ele>1545.94</ele>
        <time>2015-12-18T13:53:00Z</time>
      </trkpt>
      <trkpt lat="42.95891" lon="0.8809">
        <ele>1545.94</ele>
        <time>2015-12-18T13:53:33Z</time>
      </trkpt>
      <trkpt lat="42.95885" lon="0.88097">
        <ele>1547.38</ele>
        <time>2015-12-18T13:53:51Z</time>
      </trkpt>
      <trkpt lat="42.95877" lon="0.88102">
        <ele>1548.82</ele>
        <time>2015-12-18T13:54:06Z</time>
      </trkpt>
      <trkpt lat="42.95868" lon="0.881">
        <ele>1548.82</ele>
        <time>2015-12-18T13:54:27Z</time>
      </trkpt>
      <trkpt lat="42.95858" lon="0.88097">
        <ele>1547.38</ele>
        <time>2015-12-18T13:54:38Z</time>
      </trkpt>
      <trkpt lat="42.9585" lon="0.88093">
        <ele>1546.9</ele>
        <time>2015-12-18T13:54:48Z</time>
      </trkpt>
      <trkpt lat="42.95842" lon="0.88093">
        <ele>1544.98</ele>
        <time>2015-12-18T13:55:02Z</time>
      </trkpt>
      <trkpt lat="42.95836" lon="0.88105">
        <ele>1543.53</ele>
        <time>2015-12-18T13:55:20Z</time>
      </trkpt>
      <trkpt lat="42.95828" lon="0.88108">
        <ele>1541.13</ele>
        <time>2015-12-18T13:55:36Z</time>
      </trkpt>
      <trkpt lat="42.95819" lon="0.88103">
        <ele>1539.69</ele>
        <time>2015-12-18T13:55:56Z</time>
      </trkpt>
      <trkpt lat="42.9581" lon="0.88099">
        <ele>1537.29</ele>
        <time>2015-12-18T13:57:31Z</time>
      </trkpt>
      <trkpt lat="42.95801" lon="0.88092">
        <ele>1535.84</ele>
        <time>2015-12-18T13:58:21Z</time>
      </trkpt>
      <trkpt lat="42.9579" lon="0.88087">
        <ele>1532.96</ele>
        <time>2015-12-18T13:58:36Z</time>
      </trkpt>
      <trkpt lat="42.95782" lon="0.88086">
        <ele>1530.56</ele>
        <time>2015-12-18T13:58:50Z</time>
      </trkpt>
      <trkpt lat="42.95774" lon="0.88084">
        <ele>1528.15</ele>
        <time>2015-12-18T13:59:06Z</time>
      </trkpt>
      <trkpt lat="42.95765" lon="0.88077">
        <ele>1525.75</ele>
        <time>2015-12-18T13:59:21Z</time>
      </trkpt>
      <trkpt lat="42.95756" lon="0.88073">
        <ele>1522.87</ele>
        <time>2015-12-18T13:59:34Z</time>
      </trkpt>
      <trkpt lat="42.95749" lon="0.88077">
        <ele>1519.98</ele>
        <time>2015-12-18T13:59:49Z</time>
      </trkpt>
      <trkpt lat="42.9574" lon="0.88068">
        <ele>1518.54</ele>
        <time>2015-12-18T14:00:00Z</time>
      </trkpt>
      <trkpt lat="42.95731" lon="0.88062">
        <ele>1516.62</ele>
        <time>2015-12-18T14:00:12Z</time>
      </trkpt>
      <trkpt lat="42.95723" lon="0.88069">
        <ele>1514.69</ele>
        <time>2015-12-18T14:00:26Z</time>
      </trkpt>
      <trkpt lat="42.95715" lon="0.88061">
        <ele>1513.25</ele>
        <time>2015-12-18T14:00:42Z</time>
      </trkpt>
      <trkpt lat="42.95707" lon="0.88062">
        <ele>1511.81</ele>
        <time>2015-12-18T14:04:15Z</time>
      </trkpt>
      <trkpt lat="42.95711" lon="0.88074">
        <ele>1512.29</ele>
        <time>2015-12-18T14:04:27Z</time>
      </trkpt>
      <trkpt lat="42.95714" lon="0.88088">
        <ele>1512.29</ele>
        <time>2015-12-18T14:04:38Z</time>
      </trkpt>
      <trkpt lat="42.95717" lon="0.88099">
        <ele>1511.81</ele>
        <time>2015-12-18T14:04:48Z</time>
      </trkpt>
      <trkpt lat="42.9572" lon="0.88111">
        <ele>1511.81</ele>
        <time>2015-12-18T14:04:59Z</time>
      </trkpt>
      <trkpt lat="42.9572" lon="0.88125">
        <ele>1510.85</ele>
        <time>2015-12-18T14:05:09Z</time>
      </trkpt>
      <trkpt lat="42.95719" lon="0.88138">
        <ele>1509.89</ele>
        <time>2015-12-18T14:05:20Z</time>
      </trkpt>
      <trkpt lat="42.95715" lon="0.88151">
        <ele>1509.89</ele>
        <time>2015-12-18T14:05:31Z</time>
      </trkpt>
      <trkpt lat="42.95712" lon="0.88163">
        <ele>1508.93</ele>
        <time>2015-12-18T14:05:41Z</time>
      </trkpt>
      <trkpt lat="42.95709" lon="0.88176">
        <ele>1507.97</ele>
        <time>2015-12-18T14:05:51Z</time>
      </trkpt>
      <trkpt lat="42.95707" lon="0.88187">
        <ele>1507.97</ele>
        <time>2015-12-18T14:06:01Z</time>
      </trkpt>
      <trkpt lat="42.95706" lon="0.88199">
        <ele>1507.97</ele>
        <time>2015-12-18T14:06:10Z</time>
      </trkpt>
      <trkpt lat="42.95706" lon="0.88213">
        <ele>1507</ele>
        <time>2015-12-18T14:06:19Z</time>
      </trkpt>
      <trkpt lat="42.95706" lon="0.88226">
        <ele>1507</ele>
        <time>2015-12-18T14:06:28Z</time>
      </trkpt>
      <trkpt lat="42.95709" lon="0.88238">
        <ele>1507</ele>
        <time>2015-12-18T14:06:37Z</time>
      </trkpt>
      <trkpt lat="42.95707" lon="0.88248">
        <ele>1506.52</ele>
        <time>2015-12-18T14:06:52Z</time>
      </trkpt>
      <trkpt lat="42.9571" lon="0.88261">
        <ele>1506.52</ele>
        <time>2015-12-18T14:07:01Z</time>
      </trkpt>
      <trkpt lat="42.95711" lon="0.88274">
        <ele>1506.04</ele>
        <time>2015-12-18T14:07:11Z</time>
      </trkpt>
      <trkpt lat="42.95715" lon="0.88286">
        <ele>1506.04</ele>
        <time>2015-12-18T14:07:22Z</time>
      </trkpt>
      <trkpt lat="42.95715" lon="0.88298">
        <ele>1504.6</ele>
        <time>2015-12-18T14:07:32Z</time>
      </trkpt>
      <trkpt lat="42.95719" lon="0.88312">
        <ele>1504.12</ele>
        <time>2015-12-18T14:07:51Z</time>
      </trkpt>
      <trkpt lat="42.95719" lon="0.88326">
        <ele>1502.68</ele>
        <time>2015-12-18T14:08:01Z</time>
      </trkpt>
      <trkpt lat="42.95718" lon="0.88336">
        <ele>1500.76</ele>
        <time>2015-12-18T14:08:10Z</time>
      </trkpt>
      <trkpt lat="42.95719" lon="0.88351">
        <ele>1498.35</ele>
        <time>2015-12-18T14:08:20Z</time>
      </trkpt>
      <trkpt lat="42.95719" lon="0.88364">
        <ele>1495.47</ele>
        <time>2015-12-18T14:08:31Z</time>
      </trkpt>
      <trkpt lat="42.9572" lon="0.88379">
        <ele>1492.1</ele>
        <time>2015-12-18T14:08:44Z</time>
      </trkpt>
      <trkpt lat="42.95714" lon="0.88376">
        <ele>1491.62</ele>
        <time>2015-12-18T14:08:57Z</time>
      </trkpt>
      <trkpt lat="42.9571" lon="0.88386">
        <ele>1490.18</ele>
        <time>2015-12-18T14:09:11Z</time>
      </trkpt>
      <trkpt lat="42.95713" lon="0.884">
        <ele>1487.78</ele>
        <time>2015-12-18T14:09:28Z</time>
      </trkpt>
      <trkpt lat="42.95716" lon="0.88399">
        <ele>1488.74</ele>
        <time>2015-12-18T14:10:24Z</time>
      </trkpt>
      <trkpt lat="42.9571" lon="0.88395">
        <ele>1488.26</ele>
        <time>2015-12-18T14:10:51Z</time>
      </trkpt>
      <trkpt lat="42.9571" lon="0.88413">
        <ele>1487.78</ele>
        <time>2015-12-18T14:11:19Z</time>
      </trkpt>
    </trkseg>
  </trk>
</gpx>